Time;durP1;ratioP1;P1;durP2;ratioP2;P2;SDS_P1;SDS_P2;PMS_P1;PMS_P2;Temp;Humidity;BMP_temperature;BMP_pressure;BME280_temperature;BME280_humidity;BME280_pressure;Samples;Min_cycle;Max_cycle;Signal;HPM_P1;HPM_P2
2023/06/21 00:00:49;;;;;;;15.10;9.75;;;22.10;1.00;;;;;;7389292;19;20035;-71
2023/06/21 00:03:19;;;;;;;13.10;9.38;;;22.00;1.00;;;;;;7391346;19;20014;-70
2023/06/21 00:05:52;;;;;;;12.55;9.18;;;22.00;1.00;;;;;;7391315;19;20014;-70
2023/06/21 00:08:22;;;;;;;14.82;9.32;;;22.00;1.00;;;;;;7390052;19;20126;-70
2023/06/21 00:10:52;;;;;;;14.63;9.80;;;21.90;1.00;;;;;;7389661;19;20014;-71
2023/06/21 00:13:22;;;;;;;14.02;9.57;;;21.90;1.00;;;;;;7389139;19;20505;-70
2023/06/21 00:15:54;;;;;;;13.60;9.50;;;21.90;1.00;;;;;;7387808;19;20021;-70
2023/06/21 00:18:24;;;;;;;16.60;9.93;;;21.80;1.00;;;;;;7388507;19;20081;-70
2023/06/21 00:20:59;;;;;;;18.00;11.02;;;21.70;1.00;;;;;;7388286;19;20501;-70
2023/06/21 00:23:29;;;;;;;17.73;10.15;;;21.70;1.00;;;;;;7387462;19;20034;-70
2023/06/21 00:25:59;;;;;;;13.85;9.27;;;21.70;1.00;;;;;;7387380;19;20018;-70
2023/06/21 00:28:29;;;;;;;13.15;9.20;;;21.70;1.00;;;;;;7386700;19;20035;-71
2023/06/21 00:30:59;;;;;;;13.18;10.23;;;21.50;1.00;;;;;;7386741;19;20018;-70
2023/06/21 00:33:29;;;;;;;13.50;9.68;;;21.50;1.00;;;;;;7388806;19;20020;-71
2023/06/21 00:36:02;;;;;;;18.42;10.38;;;21.50;1.00;;;;;;7384615;19;20479;-71
2023/06/21 00:38:34;;;;;;;13.85;10.13;;;21.50;1.00;;;;;;7388274;19;20042;-71
2023/06/21 00:41:07;;;;;;;12.48;9.57;;;21.30;1.00;;;;;;7385759;19;20082;-71
2023/06/21 00:43:37;;;;;;;13.23;10.80;;;21.40;1.00;;;;;;7389773;19;20027;-71
2023/06/21 00:46:07;;;;;;;15.90;10.25;;;21.40;1.00;;;;;;7389299;19;20023;-71
2023/06/21 00:48:37;;;;;;;14.55;11.30;;;21.30;1.00;;;;;;7385745;19;20029;-69
2023/06/21 00:51:13;;;;;;;14.93;10.70;;;21.30;1.00;;;;;;7387614;19;20022;-69
2023/06/21 00:53:43;;;;;;;20.30;10.95;;;21.20;1.00;;;;;;7386361;19;20018;-70
2023/06/21 00:56:16;;;;;;;12.43;10.38;;;21.10;1.00;;;;;;7388430;19;20025;-70
2023/06/21 00:58:46;;;;;;;16.90;10.68;;;21.10;1.00;;;;;;7388573;19;20042;-70
2023/06/21 01:01:16;;;;;;;16.92;10.40;;;21.20;1.00;;;;;;7384951;19;20047;-69
2023/06/21 01:03:46;;;;;;;18.90;10.93;;;21.20;1.00;;;;;;7390221;19;20014;-71
2023/06/21 01:06:26;;;;;;;14.95;10.40;;;21.20;1.00;;;;;;7389122;19;20039;-70
2023/06/21 01:09:07;;;;;;;14.82;10.35;;;21.30;1.00;;;;;;7385313;19;20018;-70
2023/06/21 01:11:48;;;;;;;18.33;10.65;;;21.30;1.00;;;;;;7387332;19;20043;-70
2023/06/21 01:14:27;;;;;;;18.50;11.32;;;21.20;1.00;;;;;;7388393;19;20082;-70
2023/06/21 01:16:58;;;;;;;13.32;10.85;;;21.10;1.00;;;;;;7386702;19;20021;-70
2023/06/21 01:19:42;;;;;;;12.57;10.35;;;21.00;1.20;;;;;;7386917;19;20098;-70
2023/06/21 01:22:34;;;;;;;13.57;11.32;;;21.00;2.90;;;;;;7389521;19;20597;-70
2023/06/21 01:25:24;;;;;;;14.20;11.15;;;20.90;4.00;;;;;;7386542;19;20023;-70
2023/06/21 01:28:03;;;;;;;17.55;11.50;;;20.90;5.60;;;;;;7387371;19;20018;-70
2023/06/21 01:30:38;;;;;;;15.90;11.00;;;20.80;6.10;;;;;;7385168;19;20336;-70
2023/06/21 01:33:10;;;;;;;15.98;11.07;;;20.70;7.00;;;;;;7389247;19;20057;-71
2023/06/21 01:35:41;;;;;;;12.55;11.15;;;20.80;7.70;;;;;;7386282;19;20010;-70
2023/06/21 01:38:11;;;;;;;15.98;11.73;;;20.70;7.40;;;;;;7387326;19;20470;-71
2023/06/21 01:40:41;;;;;;;12.77;11.25;;;20.70;7.70;;;;;;7385591;19;20014;-71
2023/06/21 01:43:11;;;;;;;15.85;12.02;;;20.70;7.90;;;;;;7384980;19;20022;-71
2023/06/21 01:45:44;;;;;;;17.55;11.80;;;20.70;7.80;;;;;;7385460;19;20082;-70
2023/06/21 01:48:15;;;;;;;13.43;10.65;;;20.70;6.30;;;;;;7386934;19;20015;-71
2023/06/21 01:50:46;;;;;;;19.42;11.95;;;20.60;5.60;;;;;;7388339;19;20093;-71
2023/06/21 01:53:17;;;;;;;18.50;11.32;;;20.70;3.80;;;;;;7385339;19;20014;-70
2023/06/21 01:55:51;;;;;;;17.90;11.77;;;20.80;3.80;;;;;;7386504;19;20042;-70
2023/06/21 01:58:22;;;;;;;15.13;11.05;;;20.80;1.60;;;;;;7385683;19;20467;-70
2023/06/21 02:00:56;;;;;;;17.65;11.65;;;20.80;1.00;;;;;;7385607;19;20023;-71
2023/06/21 02:03:27;;;;;;;16.88;11.40;;;20.80;1.00;;;;;;7388206;19;20025;-70
2023/06/21 02:05:59;;;;;;;14.52;11.57;;;20.80;3.50;;;;;;7385783;19;20022;-71
2023/06/21 02:08:32;;;;;;;14.90;11.38;;;20.60;4.60;;;;;;7386817;19;20031;-71
2023/06/21 02:11:03;;;;;;;15.97;11.07;;;20.60;6.40;;;;;;7384803;19;20010;-70
2023/06/21 02:13:33;;;;;;;16.83;11.35;;;20.50;7.40;;;;;;7385342;19;20692;-71
2023/06/21 02:16:06;;;;;;;16.73;12.02;;;20.40;8.10;;;;;;7388146;19;20486;-71
2023/06/21 02:18:37;;;;;;;14.80;10.87;;;20.40;7.90;;;;;;7384508;19;20021;-71
2023/06/21 02:21:08;;;;;;;15.77;11.48;;;20.40;8.40;;;;;;7384458;19;20358;-70
2023/06/21 02:23:38;;;;;;;16.55;11.52;;;20.40;9.40;;;;;;7383827;19;20042;-71
2023/06/21 02:26:08;;;;;;;21.80;12.15;;;20.50;9.30;;;;;;7387051;19;20015;-70
2023/06/21 02:28:41;;;;;;;12.68;10.93;;;20.30;9.60;;;;;;7383357;19;20014;-70
2023/06/21 02:31:13;;;;;;;18.10;12.35;;;20.40;11.10;;;;;;7384901;19;20039;-71
2023/06/21 02:33:47;;;;;;;15.38;12.38;;;20.30;11.90;;;;;;7383325;19;20010;-70
2023/06/21 02:36:17;;;;;;;18.33;12.13;;;20.20;13.50;;;;;;7386595;19;20053;-71
2023/06/21 02:38:47;;;;;;;15.27;12.77;;;20.10;13.40;;;;;;7382400;19;20039;-70
2023/06/21 02:41:17;;;;;;;17.13;12.55;;;20.10;14.70;;;;;;7384435;19;20102;-71
2023/06/21 02:43:47;;;;;;;16.63;12.82;;;20.10;14.80;;;;;;7386012;19;20032;-70
2023/06/21 02:46:20;;;;;;;16.85;13.02;;;20.10;15.70;;;;;;7385741;19;20507;-71
2023/06/21 02:48:50;;;;;;;18.48;14.10;;;20.00;15.50;;;;;;7383443;19;20396;-70
2023/06/21 02:51:24;;;;;;;16.55;13.60;;;19.90;18.40;;;;;;7383614;19;20039;-70
2023/06/21 02:53:54;;;;;;;;;;;20.00;19.30;;;;;;7386342;19;20039;-70
2023/06/21 02:56:24;;;;;;;18.42;13.68;;;19.90;20.10;;;;;;7385104;19;20346;-71
2023/06/21 02:58:55;;;;;;;20.67;14.35;;;20.00;20.80;;;;;;7388123;19;20018;-71
2023/06/21 03:01:27;;;;;;;19.00;14.85;;;20.00;20.40;;;;;;7389771;19;20018;-70
2023/06/21 03:03:57;;;;;;;19.60;14.20;;;20.10;20.30;;;;;;7391911;19;20024;-70
2023/06/21 03:06:30;;;;;;;17.92;14.80;;;20.00;20.00;;;;;;7388646;19;20802;-70
2023/06/21 03:09:00;;;;;;;19.88;14.80;;;20.00;20.70;;;;;;7390946;19;20023;-71
2023/06/21 03:11:30;;;;;;;18.40;14.65;;;20.10;20.50;;;;;;7389101;19;20962;-71
2023/06/21 03:14:00;;;;;;;17.92;13.93;;;20.20;19.70;;;;;;7389216;19;20018;-70
2023/06/21 03:16:32;;;;;;;17.65;13.98;;;20.10;19.10;;;;;;7391354;19;20018;-71
2023/06/21 03:19:02;;;;;;;20.17;13.95;;;20.00;20.60;;;;;;7390332;19;20019;-70
2023/06/21 03:21:33;;;;;;;16.83;14.10;;;19.90;20.30;;;;;;7388929;19;20387;-70
2023/06/21 03:24:04;;;;;;;15.73;13.70;;;20.00;20.60;;;;;;7391186;19;20022;-70
2023/06/21 03:26:37;;;;;;;16.38;13.07;;;20.10;20.00;;;;;;7388248;19;20703;-70
2023/06/21 03:29:08;;;;;;;18.15;13.77;;;20.20;20.50;;;;;;7388552;19;20021;-71
2023/06/21 03:31:41;;;;;;;19.85;12.60;;;20.30;19.50;;;;;;7391151;19;20014;-70
2023/06/21 03:34:13;;;;;;;20.70;13.70;;;20.60;16.80;;;;;;7392638;19;20014;-71
2023/06/21 03:36:43;;;;;;;13.70;12.18;;;20.80;13.10;;;;;;7389644;19;20014;-70
2023/06/21 03:39:13;;;;;;;17.92;12.52;;;21.00;7.80;;;;;;7388662;19;20014;-70
2023/06/21 03:41:43;;;;;;;17.10;12.32;;;21.00;5.80;;;;;;7388202;19;20022;-70
2023/06/21 03:44:12;;;;;;;15.23;12.07;;;21.10;4.10;;;;;;7389128;19;20014;-69
2023/06/21 03:46:45;;;;;;;15.45;11.73;;;21.30;1.50;;;;;;7390673;19;20085;-71
2023/06/21 03:49:15;;;;;;;18.98;11.60;;;21.40;1.00;;;;;;7392008;19;20014;-71
2023/06/21 03:51:45;;;;;;;14.63;10.20;;;21.50;1.00;;;;;;7389696;19;20126;-70
2023/06/21 03:54:15;;;;;;;12.27;8.80;;;21.10;1.00;;;;;;7387558;19;20014;-71
2023/06/21 03:56:45;;;;;;;14.65;9.25;;;20.60;1.00;;;;;;7389934;19;20040;-72
2023/06/21 03:59:15;;;;;;;11.18;9.13;;;20.10;5.40;;;;;;7388507;19;20474;-71
2023/06/21 04:01:47;;;;;;;15.60;9.15;;;20.00;12.70;;;;;;7389334;19;20014;-71
2023/06/21 04:04:17;;;;;;;12.55;9.40;;;19.70;10.70;;;;;;7390903;19;20519;-71
2023/06/21 04:06:47;;;;;;;12.73;9.60;;;19.60;12.90;;;;;;7387230;19;20035;-71
2023/06/21 04:09:18;;;;;;;13.88;8.93;;;19.70;15.90;;;;;;7388369;19;20018;-71
2023/06/21 04:11:48;;;;;;;13.13;9.05;;;19.40;14.20;;;;;;7391183;19;20056;-71
2023/06/21 04:14:18;;;;;;;12.85;9.55;;;19.40;14.90;;;;;;7388264;19;20022;-71
2023/06/21 04:16:51;;;;;;;17.42;10.48;;;19.40;18.30;;;;;;7386204;19;20029;-71
2023/06/21 04:19:21;;;;;;;14.85;10.55;;;19.40;20.20;;;;;;7390559;19;20336;-71
2023/06/21 04:21:51;;;;;;;15.35;11.35;;;19.40;20.00;;;;;;7388510;19;20115;-71
2023/06/21 04:24:21;;;;;;;17.77;10.93;;;19.40;20.90;;;;;;7389613;19;20109;-71
2023/06/21 04:26:52;;;;;;;13.52;10.70;;;19.50;21.50;;;;;;7389320;19;20026;-71
2023/06/21 04:29:23;;;;;;;17.48;12.27;;;19.40;20.60;;;;;;7386641;19;20097;-71
2023/06/21 04:31:55;;;;;;;14.10;10.48;;;19.50;21.50;;;;;;7389630;19;20018;-71
2023/06/21 04:34:27;;;;;;;13.73;10.43;;;19.50;20.60;;;;;;7388238;19;20023;-71
2023/06/21 04:36:57;;;;;;;17.58;11.65;;;19.50;19.10;;;;;;7390304;19;20015;-71
2023/06/21 04:39:28;;;;;;;19.10;12.52;;;19.50;20.00;;;;;;7387168;19;20019;-71
2023/06/21 04:41:58;;;;;;;17.48;11.45;;;19.40;20.30;;;;;;7388437;19;20515;-71
2023/06/21 04:44:28;;;;;;;14.45;11.57;;;19.40;21.20;;;;;;7387346;19;20078;-71
2023/06/21 04:47:02;;;;;;;14.93;11.93;;;19.50;22.60;;;;;;7386848;19;20149;-71
2023/06/21 04:49:32;;;;;;;14.93;11.02;;;19.50;23.60;;;;;;7385761;19;20048;-71
2023/06/21 04:52:02;;;;;;;16.48;10.98;;;19.60;23.10;;;;;;7390981;19;20014;-71
2023/06/21 04:54:32;;;;;;;15.38;11.73;;;19.50;21.50;;;;;;7387977;19;20022;-71
2023/06/21 04:57:02;;;;;;;16.00;12.05;;;19.40;23.40;;;;;;7386319;19;20035;-70
2023/06/21 04:59:32;;;;;;;20.63;12.60;;;19.50;25.10;;;;;;7388121;19;20026;-70
2023/06/21 05:02:05;;;;;;;18.17;12.70;;;19.70;27.10;;;;;;7387048;19;20070;-71
2023/06/21 05:04:35;;;;;;;13.77;11.55;;;19.60;26.70;;;;;;7388311;19;20018;-70
2023/06/21 05:07:06;;;;;;;24.35;13.32;;;19.60;25.90;;;;;;7389783;19;20038;-70
2023/06/21 05:09:36;;;;;;;17.70;12.23;;;19.70;28.10;;;;;;7385848;19;20026;-70
2023/06/21 05:12:08;;;;;;;14.00;11.95;;;19.80;27.80;;;;;;7392907;19;20014;-68
2023/06/21 05:14:38;;;;;;;19.02;11.75;;;19.80;25.60;;;;;;7388567;19;20063;-70
2023/06/21 05:17:12;;;;;;;17.25;11.63;;;20.00;25.40;;;;;;7389012;19;20014;-71
2023/06/21 05:19:41;;;;;;;17.20;11.23;;;20.00;24.90;;;;;;7385371;19;20533;-70
2023/06/21 05:22:11;;;;;;;15.73;10.52;;;20.00;26.40;;;;;;7385079;19;20517;-70
2023/06/21 05:24:41;;;;;;;17.95;9.38;;;20.00;25.60;;;;;;7386196;19;20011;-71
2023/06/21 05:27:11;;;;;;;12.57;8.85;;;20.10;23.70;;;;;;7387958;19;20022;-71
2023/06/21 05:29:41;;;;;;;12.20;9.85;;;20.00;23.40;;;;;;7383408;19;20015;-70
2023/06/21 05:32:14;;;;;;;14.65;10.98;;;20.00;22.50;;;;;;7388679;19;20470;-70
2023/06/21 05:34:44;;;;;;;14.00;10.10;;;20.10;22.60;;;;;;7384711;19;20014;-70
2023/06/21 05:37:14;;;;;;;13.65;9.85;;;20.00;22.50;;;;;;7386802;19;20025;-69
2023/06/21 05:39:46;;;;;;;14.55;10.63;;;19.90;21.80;;;;;;7381383;19;20022;-70
2023/06/21 05:42:16;;;;;;;15.07;10.65;;;20.00;23.40;;;;;;7386367;19;20589;-71
2023/06/21 05:44:46;;;;;;;21.50;10.65;;;20.10;21.90;;;;;;7386549;19;20109;-72
2023/06/21 05:47:18;;;;;;;11.07;9.68;;;20.10;22.90;;;;;;7384544;19;20014;-71
2023/06/21 05:49:48;;;;;;;13.80;9.70;;;20.10;22.10;;;;;;7384769;19;20026;-71
2023/06/21 05:52:18;;;;;;;16.25;9.77;;;20.20;21.40;;;;;;7382936;19;20022;-69
2023/06/21 05:54:48;;;;;;;14.25;9.88;;;20.40;18.60;;;;;;7387111;19;20052;-70
2023/06/21 05:57:18;;;;;;;13.27;10.05;;;20.50;17.50;;;;;;7385267;19;20363;-70
2023/06/21 05:59:48;;;;;;;12.10;9.93;;;20.50;13.80;;;;;;7384316;19;20043;-70
2023/06/21 06:02:21;;;;;;;13.50;9.50;;;20.80;15.20;;;;;;7383521;19;20014;-70
2023/06/21 06:04:51;;;;;;;12.82;9.93;;;20.80;15.40;;;;;;7386562;19;20014;-71
2023/06/21 06:07:23;;;;;;;12.27;10.15;;;20.90;13.30;;;;;;7383122;19;20639;-72
2023/06/21 06:09:53;;;;;;;16.77;10.68;;;21.00;13.70;;;;;;7385488;19;20052;-71
2023/06/21 06:12:24;;;;;;;17.75;10.95;;;20.90;11.50;;;;;;7384413;19;20307;-71
2023/06/21 06:14:53;;;;;;;14.40;10.73;;;20.90;14.60;;;;;;7387361;19;20019;-72
2023/06/21 06:17:26;;;;;;;14.63;10.18;;;21.00;14.10;;;;;;7385616;19;20010;-72
2023/06/21 06:19:56;;;;;;;13.48;10.52;;;21.30;11.20;;;;;;7382909;19;20014;-71
2023/06/21 06:22:26;;;;;;;14.60;10.00;;;21.90;5.60;;;;;;7384029;19;20024;-70
2023/06/21 06:24:56;;;;;;;13.95;9.05;;;22.50;2.60;;;;;;7384881;19;20526;-70
2023/06/21 06:27:26;;;;;;;10.55;8.23;;;22.60;1.00;;;;;;7386009;19;20014;-70
2023/06/21 06:29:56;;;;;;;12.85;8.90;;;22.90;1.00;;;;;;7385410;19;20359;-71
2023/06/21 06:32:29;;;;;;;8.38;7.45;;;22.50;1.00;;;;;;7389032;19;20052;-71
2023/06/21 06:34:59;;;;;;;9.48;7.45;;;23.10;1.00;;;;;;7393396;19;20384;-71
2023/06/21 06:37:29;;;;;;;12.18;7.68;;;23.00;1.00;;;;;;7393002;19;20018;-71
2023/06/21 06:40:01;;;;;;;10.60;8.05;;;22.80;1.00;;;;;;7390946;19;20770;-71
2023/06/21 06:42:31;;;;;;;9.23;8.15;;;22.70;1.00;;;;;;7393944;19;20010;-70
2023/06/21 06:45:01;;;;;;;9.20;7.28;;;23.00;1.00;;;;;;7389181;19;20031;-70
2023/06/21 06:47:34;;;;;;;12.75;8.05;;;23.70;1.00;;;;;;7390369;19;20022;-70
2023/06/21 06:50:05;;;;;;;11.40;7.60;;;23.70;1.00;;;;;;7390832;19;20055;-71
2023/06/21 06:52:35;;;;;;;11.05;7.32;;;23.80;1.00;;;;;;7395779;19;20124;-71
2023/06/21 06:55:06;;;;;;;13.07;8.18;;;23.80;1.00;;;;;;7393333;19;20546;-71
2023/06/21 06:57:36;;;;;;;11.18;8.38;;;24.50;1.00;;;;;;7391168;19;20023;-70
2023/06/21 07:00:17;;;;;;;10.52;7.95;;;24.50;1.00;;;;;;7389844;19;20039;-71
2023/06/21 07:02:56;;;;;;;11.13;7.78;;;24.50;1.00;;;;;;7389846;19;20044;-69
2023/06/21 07:05:26;;;;;;;13.35;8.38;;;24.30;1.00;;;;;;7388975;19;20010;-70
2023/06/21 07:07:57;;;;;;;10.82;7.47;;;24.20;1.00;;;;;;7392292;19;20022;-71
2023/06/21 07:10:27;;;;;;;11.88;8.20;;;24.50;1.00;;;;;;7388320;19;20039;-71
2023/06/21 07:13:02;;;;;;;9.48;8.20;;;24.30;1.00;;;;;;7391002;19;20487;-70
2023/06/21 07:15:32;;;;;;;14.32;8.50;;;24.60;1.00;;;;;;7387488;19;20014;-69
2023/06/21 07:18:04;;;;;;;9.23;7.40;;;24.70;1.00;;;;;;7393426;19;20086;-70
2023/06/21 07:20:35;;;;;;;10.30;7.97;;;25.10;1.00;;;;;;7390605;19;20019;-71
2023/06/21 07:23:05;;;;;;;12.50;8.27;;;25.40;1.00;;;;;;7389986;19;20435;-70
2023/06/21 07:25:37;;;;;;;13.73;8.60;;;25.70;1.00;;;;;;7390532;19;20042;-71
2023/06/21 07:28:07;;;;;;;11.82;8.43;;;25.50;1.00;;;;;;7393904;19;20026;-71
2023/06/21 07:30:37;;;;;;;10.02;7.18;;;25.00;1.00;;;;;;7390563;19;20466;-70
2023/06/21 07:33:10;;;;;;;9.98;7.15;;;25.90;1.00;;;;;;7390085;19;20021;-71
2023/06/21 07:35:40;;;;;;;8.27;6.22;;;25.90;1.00;;;;;;7392097;19;20328;-70
2023/06/21 07:38:10;;;;;;;7.72;5.18;;;26.30;1.00;;;;;;7390195;19;20025;-71
2023/06/21 07:40:40;;;;;;;8.02;4.85;;;26.20;1.00;;;;;;7388184;19;20022;-71
2023/06/21 07:43:10;;;;;;;6.95;3.83;;;26.10;1.00;;;;;;7383857;19;20113;-70
2023/06/21 07:45:40;;;;;;;6.47;3.50;;;26.00;1.00;;;;;;7392008;19;20019;-70
2023/06/21 07:48:13;;;;;;;6.28;3.85;;;25.90;1.00;;;;;;7387967;19;20035;-71
2023/06/21 07:50:43;;;;;;;5.78;3.45;;;25.90;1.00;;;;;;7389072;19;20018;-70
2023/06/21 07:53:13;;;;;;;7.93;4.35;;;26.20;1.00;;;;;;7390164;19;20026;-71
2023/06/21 07:55:43;;;;;;;4.68;3.55;;;25.50;1.00;;;;;;7388948;19;20082;-71
2023/06/21 07:58:13;;;;;;;8.23;3.80;;;25.20;1.00;;;;;;7390275;19;20022;-71
2023/06/21 08:00:43;;;;;;;8.85;4.10;;;25.30;1.00;;;;;;7390192;19;20018;-70
2023/06/21 08:03:16;;;;;;;5.72;4.00;;;25.30;1.00;;;;;;7387925;19;20019;-70
2023/06/21 08:05:46;;;;;;;6.30;3.75;;;25.80;1.00;;;;;;7391482;19;20026;-71
2023/06/21 08:08:17;;;;;;;7.35;3.13;;;26.10;1.00;;;;;;7388159;19;20007;-69
2023/06/21 08:10:47;;;;;;;7.53;3.83;;;25.30;1.00;;;;;;7388121;19;20035;-70
2023/06/21 08:13:22;;;;;;;6.50;3.58;;;25.60;1.00;;;;;;7392684;19;20440;-71
2023/06/21 08:15:52;;;;;;;6.07;2.97;;;25.50;1.00;;;;;;7386837;19;20022;-70
2023/06/21 08:18:25;;;;;;;4.38;3.10;;;24.50;1.00;;;;;;7389831;19;20421;-70
2023/06/21 08:20:55;;;;;;;3.55;2.38;;;24.60;1.00;;;;;;7384393;19;20018;-69
2023/06/21 08:23:25;;;;;;;6.28;3.30;;;24.50;1.00;;;;;;7390359;19;20018;-70
2023/06/21 08:25:54;;;;;;;4.07;2.83;;;25.00;1.00;;;;;;7388919;19;20037;-70
2023/06/21 08:28:25;;;;;;;5.47;3.13;;;24.60;1.00;;;;;;7388747;19;20025;-70
2023/06/21 08:30:54;;;;;;;3.28;2.70;;;24.80;1.00;;;;;;7386518;19;20010;-70
2023/06/21 08:33:27;;;;;;;3.85;2.75;;;25.00;1.00;;;;;;7384735;19;20115;-69
2023/06/21 08:35:57;;;;;;;5.32;2.83;;;25.20;1.00;;;;;;7387751;19;20108;-70
2023/06/21 08:38:27;;;;;;;5.80;3.03;;;25.20;1.00;;;;;;7387755;19;20505;-70
2023/06/21 08:41:01;;;;;;;10.10;6.50;;;25.00;1.00;;;;;;7387385;19;20057;-71
2023/06/21 08:43:32;;;;;;;4.93;3.50;;;25.20;1.00;;;;;;7388414;19;20534;-71
2023/06/21 08:46:05;;;;;;;9.30;3.42;;;25.10;1.00;;;;;;7385807;19;20063;-70
2023/06/21 08:48:43;;;;;;;8.23;3.58;;;25.10;1.00;;;;;;7390365;19;20026;-71
2023/06/21 08:51:14;;;;;;;4.93;3.50;;;24.50;1.00;;;;;;7384542;19;20082;-70
2023/06/21 08:53:48;;;;;;;7.10;4.07;;;24.50;1.00;;;;;;7388202;19;20014;-70
2023/06/21 08:56:22;;;;;;;5.88;3.83;;;24.50;1.00;;;;;;7384292;19;20118;-71
2023/06/21 08:58:59;;;;;;;7.28;3.75;;;23.90;1.00;;;;;;7388618;19;20534;-68
2023/06/21 09:01:33;;;;;;;6.30;4.20;;;23.70;1.00;;;;;;7387744;19;20014;-68
2023/06/21 09:04:09;;;;;;;7.72;4.00;;;23.90;1.00;;;;;;7387971;19;20180;-71
2023/06/21 09:06:40;;;;;;;6.30;3.42;;;23.70;1.00;;;;;;7385503;19;20011;-71
2023/06/21 09:09:10;;;;;;;8.57;4.10;;;23.30;1.00;;;;;;7389359;19;20498;-71
2023/06/21 09:11:41;;;;;;;5.40;3.97;;;23.30;1.00;;;;;;7384815;19;20526;-71
2023/06/21 09:14:12;;;;;;;8.38;3.60;;;23.10;1.00;;;;;;7388499;19;20022;-71
2023/06/21 09:16:42;;;;;;;5.63;3.53;;;23.10;1.00;;;;;;7385258;19;20074;-71
2023/06/21 09:19:16;;;;;;;6.57;3.65;;;23.10;1.00;;;;;;7386128;19;20014;-74
2023/06/21 09:21:47;;;;;;;5.13;3.60;;;22.80;1.00;;;;;;7388451;19;20035;-78
2023/06/21 09:24:17;;;;;;;7.00;3.83;;;22.50;1.00;;;;;;7384768;19;20014;-75
2023/06/21 09:26:47;;;;;;;7.38;3.60;;;22.50;1.00;;;;;;7388546;19;20070;-76
2023/06/21 09:29:18;;;;;;;6.03;4.00;;;22.40;1.00;;;;;;7385225;19;20474;-76
2023/06/21 09:31:48;;;;;;;7.93;4.20;;;22.30;1.00;;;;;;7388989;19;20014;-76
2023/06/21 09:34:21;;;;;;;8.48;4.43;;;22.20;1.00;;;;;;7387904;19;20523;-74
2023/06/21 09:36:51;;;;;;;11.00;4.50;;;22.00;1.00;;;;;;7385890;19;20074;-73
2023/06/21 09:39:27;;;;;;;7.07;4.80;;;21.80;1.00;;;;;;7386657;19;20014;-73
2023/06/21 09:41:57;;;;;;;7.32;4.03;;;21.70;4.50;;;;;;7385271;19;20039;-74
2023/06/21 09:44:27;;;;;;;7.45;3.95;;;21.80;1.30;;;;;;7385865;19;20022;-73
2023/06/21 09:47:00;;;;;;;7.43;4.10;;;21.50;1.00;;;;;;7385974;19;20025;-72
2023/06/21 09:49:32;;;;;;;7.25;4.65;;;21.30;1.90;;;;;;7385539;19;20498;-72
2023/06/21 09:52:02;;;;;;;9.23;4.70;;;21.50;6.50;;;;;;7385317;19;20018;-72
2023/06/21 09:54:43;;;;;;;7.20;4.25;;;21.60;7.50;;;;;;7383908;19;20742;-73
2023/06/21 09:57:17;;;;;;;;;;;21.30;12.10;;;;;;7389769;19;20018;-73
2023/06/21 09:59:51;;;;;;;8.27;4.70;;;21.00;14.40;;;;;;7388420;19;19910;-72
2023/06/21 10:02:21;;;;;;;9.05;4.68;;;20.80;18.90;;;;;;7384677;19;20369;-72
2023/06/21 10:04:54;;;;;;;8.30;4.72;;;20.80;21.50;;;;;;7384342;19;20022;-73
2023/06/21 10:07:26;;;;;;;7.22;4.60;;;20.70;18.50;;;;;;7382884;19;20007;-72
2023/06/21 10:09:56;;;;;;;8.30;4.47;;;20.60;22.40;;;;;;7388319;19;20027;-72
2023/06/21 10:12:26;;;;;;;8.38;4.78;;;20.40;21.80;;;;;;7384092;19;20015;-72
2023/06/21 10:14:56;;;;;;;10.20;5.15;;;20.50;22.30;;;;;;7384315;19;20014;-73
2023/06/21 10:17:26;;;;;;;16.98;5.90;;;20.70;22.00;;;;;;7383593;19;20014;-71
2023/06/21 10:20:01;;;;;;;10.63;5.25;;;20.90;21.40;;;;;;7382445;19;20022;-72
2023/06/21 10:22:36;;;;;;;7.78;4.90;;;21.00;21.10;;;;;;7384268;19;20059;-72
2023/06/21 10:25:07;;;;;;;12.13;5.18;;;20.80;17.10;;;;;;7387453;19;20022;-72
2023/06/21 10:27:40;;;;;;;7.22;4.97;;;20.60;21.00;;;;;;7387369;19;20015;-72
2023/06/21 10:30:11;;;;;;;8.38;4.72;;;20.50;20.70;;;;;;7384095;19;20019;-72
2023/06/21 10:32:42;;;;;;;8.52;4.43;;;20.50;16.90;;;;;;7384629;19;20385;-72
2023/06/21 10:35:19;;;;;;;7.63;4.45;;;20.70;16.60;;;;;;7384069;19;20015;-72
2023/06/21 10:37:58;;;;;;;6.30;4.13;;;21.00;15.80;;;;;;7381109;19;20014;-73
2023/06/21 10:40:29;;;;;;;10.02;4.65;;;21.20;13.90;;;;;;7383652;19;20043;-72
2023/06/21 10:43:00;;;;;;;6.95;4.20;;;21.10;11.80;;;;;;7386005;19;20649;-72
2023/06/21 10:45:32;;;;;;;8.95;4.68;;;21.40;11.90;;;;;;7384592;19;20047;-72
2023/06/21 10:48:02;;;;;;;8.68;5.10;;;21.30;13.80;;;;;;7388024;19;20023;-73
2023/06/21 10:50:35;;;;;;;8.38;5.03;;;21.20;15.10;;;;;;7381476;19;20022;-74
2023/06/21 10:53:06;;;;;;;8.20;4.80;;;20.90;15.20;;;;;;7385131;19;20018;-73
2023/06/21 10:55:39;;;;;;;7.45;4.50;;;20.90;18.20;;;;;;7385755;19;20018;-73
2023/06/21 10:58:10;;;;;;;7.40;4.88;;;21.60;14.20;;;;;;7386613;19;20115;-72
2023/06/21 11:00:40;;;;;;;6.93;4.72;;;21.90;8.20;;;;;;7383993;19;20093;-72
2023/06/21 11:03:12;;;;;;;7.13;4.82;;;21.50;8.20;;;;;;7386631;19;20046;-74
2023/06/21 11:05:46;;;;;;;6.80;4.65;;;21.70;10.20;;;;;;7384906;19;20143;-73
2023/06/21 11:08:17;;;;;;;6.38;4.72;;;22.00;5.80;;;;;;7384622;19;20021;-74
2023/06/21 11:10:49;;;;;;;7.93;5.10;;;22.10;4.70;;;;;;7372397;19;20112;-70
2023/06/21 11:13:34;;;;;;;12.75;4.90;;;22.30;4.90;;;;;;7386038;19;20050;-72
2023/06/21 11:16:15;;;;;;;5.32;4.53;;;22.30;3.90;;;;;;7385555;19;20024;-73
2023/06/21 11:18:46;;;;;;;7.30;5.03;;;22.40;1.80;;;;;;7387132;19;20056;-72
2023/06/21 11:21:40;;;;;;;5.97;4.40;;;22.70;1.00;;;;;;7389344;19;20511;-72
2023/06/21 11:24:11;;;;;;;6.03;4.38;;;23.10;1.00;;;;;;7386997;19;20039;-73
2023/06/21 11:26:55;;;;;;;5.78;4.53;;;22.70;1.00;;;;;;7389268;19;20035;-72
2023/06/21 11:29:27;;;;;;;6.13;4.30;;;23.10;1.00;;;;;;7389848;19;20011;-72
2023/06/21 11:32:18;;;;;;;7.90;4.53;;;23.50;1.00;;;;;;7391520;19;20487;-71
2023/06/21 11:34:56;;;;;;;5.68;4.22;;;23.50;1.00;;;;;;7390018;19;20359;-72
2023/06/21 11:37:40;;;;;;;10.75;4.20;;;23.60;1.00;;;;;;7391713;19;20092;-70
2023/06/21 11:40:14;;;;;;;9.27;4.50;;;22.80;1.00;;;;;;7384855;19;20542;-72
2023/06/21 11:42:47;;;;;;;8.10;4.57;;;23.30;1.00;;;;;;7390114;19;20359;-72
2023/06/21 11:45:32;;;;;;;8.43;3.60;;;23.50;1.00;;;;;;7389375;19;20015;-72
2023/06/21 11:48:07;;;;;;;8.45;4.28;;;23.90;1.00;;;;;;7391501;19;20060;-72
2023/06/21 11:50:39;;;;;;;7.28;4.18;;;24.20;1.00;;;;;;7389400;19;20026;-71
2023/06/21 11:53:21;;;;;;;7.13;4.38;;;24.30;1.00;;;;;;7388641;19;20023;-71
2023/06/21 11:55:54;;;;;;;6.07;3.70;;;24.10;1.00;;;;;;7389381;19;20035;-71
2023/06/21 11:58:25;;;;;;;5.95;3.88;;;23.70;1.00;;;;;;7390633;19;20021;-72
2023/06/21 12:00:56;;;;;;;7.07;4.00;;;23.30;1.00;;;;;;7388556;19;20520;-72
2023/06/21 12:03:27;;;;;;;8.85;4.00;;;23.50;1.00;;;;;;7390249;19;20646;-72
2023/06/21 12:05:59;;;;;;;6.88;3.92;;;23.70;1.00;;;;;;7387219;19;20606;-72
2023/06/21 12:08:33;;;;;;;7.43;5.10;;;23.90;1.00;;;;;;7390778;19;20019;-70
2023/06/21 12:11:04;;;;;;;7.28;4.55;;;23.70;1.00;;;;;;7388441;19;20021;-72
2023/06/21 12:13:36;;;;;;;5.68;4.15;;;24.60;1.00;;;;;;7389729;19;20114;-72
2023/06/21 12:16:07;;;;;;;6.05;4.70;;;25.10;1.00;;;;;;7390492;19;20015;-71
2023/06/21 12:18:39;;;;;;;7.97;4.88;;;24.70;1.00;;;;;;7389135;19;20022;-71
2023/06/21 12:21:09;;;;;;;6.95;4.72;;;25.40;1.00;;;;;;7386942;19;20039;-72
2023/06/21 12:23:42;;;;;;;6.38;4.43;;;25.90;1.00;;;;;;7388491;19;20015;-72
2023/06/21 12:26:18;;;;;;;6.82;4.57;;;25.50;1.00;;;;;;7388916;19;20022;-71
2023/06/21 12:28:49;;;;;;;6.20;4.75;;;25.70;1.00;;;;;;7388840;19;20010;-72
2023/06/21 12:31:20;;;;;;;7.20;4.47;;;25.70;1.00;;;;;;7387194;19;20021;-72
2023/06/21 12:34:00;;;;;;;7.30;4.65;;;24.80;1.00;;;;;;7389271;19;20515;-72
2023/06/21 12:36:32;;;;;;;8.18;4.72;;;25.00;1.00;;;;;;7389474;19;20018;-73
2023/06/21 12:39:09;;;;;;;7.75;5.13;;;24.80;1.00;;;;;;7388545;19;20052;-72
2023/06/21 12:41:42;;;;;;;6.70;4.90;;;25.00;1.00;;;;;;7389441;19;20090;-72
2023/06/21 12:44:21;;;;;;;9.82;5.10;;;25.70;1.00;;;;;;7389653;19;20121;-72
2023/06/21 12:46:53;;;;;;;12.75;5.25;;;25.30;1.00;;;;;;7387847;19;20043;-72
2023/06/21 12:49:23;;;;;;;5.68;4.57;;;25.20;1.00;;;;;;7387780;19;20038;-71
2023/06/21 12:51:53;;;;;;;7.88;4.60;;;25.30;1.00;;;;;;7390120;19;20441;-72
2023/06/21 12:54:25;;;;;;;8.25;4.93;;;25.60;1.00;;;;;;7402213;19;20062;-72
2023/06/21 12:56:58;;;;;;;7.65;4.72;;;25.40;1.00;;;;;;7397483;19;20025;-73
2023/06/21 12:59:29;;;;;;;5.73;4.10;;;25.00;1.00;;;;;;7390600;19;20039;-72
2023/06/21 13:01:58;;;;;;;10.40;5.18;;;25.50;1.00;;;;;;7390949;19;20503;-71
2023/06/21 13:04:29;;;;;;;5.35;4.57;;;25.80;1.00;;;;;;7385066;19;20471;-72
2023/06/21 13:06:59;;;;;;;7.70;4.93;;;25.00;1.00;;;;;;7388610;19;20010;-72